sensor_id;sensor_type;location;lat;lon;timestamp;pressure;altitude;pressure_sealevel;temperature;humidity
39177;BME280;24904;52.208;21.192;2023-07-08T00:02:38;101134.95;;;13.67;66.29
39177;BME280;24904;52.208;21.192;2023-07-08T00:07:42;101137.59;;;13.64;66.60
39177;BME280;24904;52.208;21.192;2023-07-08T00:12:49;101139.59;;;13.66;66.72
39177;BME280;24904;52.208;21.192;2023-07-08T00:17:52;101136.42;;;13.59;66.78
39177;BME280;24904;52.208;21.192;2023-07-08T00:22:56;101138.02;;;13.52;67.13
39177;BME280;24904;52.208;21.192;2023-07-08T00:27:59;101139.91;;;13.46;67.24
39177;BME280;24904;52.208;21.192;2023-07-08T00:33:02;101141.54;;;13.37;67.38
39177;BME280;24904;52.208;21.192;2023-07-08T00:38:13;101143.61;;;13.25;67.64
39177;BME280;24904;52.208;21.192;2023-07-08T00:43:17;101146.83;;;13.20;67.80
39177;BME280;24904;52.208;21.192;2023-07-08T00:48:24;101145.35;;;13.11;68.03
39177;BME280;24904;52.208;21.192;2023-07-08T00:53:32;101145.59;;;13.05;68.20
39177;BME280;24904;52.208;21.192;2023-07-08T00:58:40;101140.05;;;13.02;68.54
39177;BME280;24904;52.208;21.192;2023-07-08T01:03:47;101141.05;;;13.01;68.67
39177;BME280;24904;52.208;21.192;2023-07-08T01:08:51;101140.00;;;12.98;68.86
39177;BME280;24904;52.208;21.192;2023-07-08T01:13:55;101143.06;;;12.98;69.04
39177;BME280;24904;52.208;21.192;2023-07-08T01:18:59;101142.09;;;12.96;69.03
39177;BME280;24904;52.208;21.192;2023-07-08T01:24:06;101144.46;;;12.97;69.27
39177;BME280;24904;52.208;21.192;2023-07-08T01:29:11;101144.71;;;12.93;69.27
39177;BME280;24904;52.208;21.192;2023-07-08T01:34:14;101144.09;;;12.88;69.35
39177;BME280;24904;52.208;21.192;2023-07-08T01:39:20;101140.63;;;12.81;69.35
39177;BME280;24904;52.208;21.192;2023-07-08T01:44:28;101145.66;;;12.66;69.62
39177;BME280;24904;52.208;21.192;2023-07-08T01:49:32;101145.66;;;12.60;69.75
39177;BME280;24904;52.208;21.192;2023-07-08T01:54:36;101145.88;;;12.54;69.66
39177;BME280;24904;52.208;21.192;2023-07-08T01:59:40;101139.69;;;12.40;69.99
39177;BME280;24904;52.208;21.192;2023-07-08T02:04:43;101138.85;;;12.32;70.35
39177;BME280;24904;52.208;21.192;2023-07-08T02:09:48;101140.55;;;12.21;70.38
39177;BME280;24904;52.208;21.192;2023-07-08T02:14:51;101137.36;;;12.13;70.56
39177;BME280;24904;52.208;21.192;2023-07-08T02:19:55;101136.05;;;12.10;70.80
39177;BME280;24904;52.208;21.192;2023-07-08T02:24:58;101133.98;;;12.04;70.84
39177;BME280;24904;52.208;21.192;2023-07-08T02:30:01;101135.82;;;11.93;70.86
39177;BME280;24904;52.208;21.192;2023-07-08T02:35:04;101135.58;;;11.88;71.06
39177;BME280;24904;52.208;21.192;2023-07-08T02:40:10;101129.69;;;11.83;71.40
39177;BME280;24904;52.208;21.192;2023-07-08T02:45:14;101125.92;;;11.84;71.53
39177;BME280;24904;52.208;21.192;2023-07-08T02:50:17;101123.23;;;11.88;71.53
39177;BME280;24904;52.208;21.192;2023-07-08T02:55:21;101120.23;;;11.87;71.51
39177;BME280;24904;52.208;21.192;2023-07-08T03:00:24;101129.79;;;11.84;71.41
39177;BME280;24904;52.208;21.192;2023-07-08T03:05:27;101130.58;;;11.85;71.62
39177;BME280;24904;52.208;21.192;2023-07-08T03:10:30;101132.87;;;11.91;71.69
39177;BME280;24904;52.208;21.192;2023-07-08T03:15:33;101135.21;;;11.90;71.83
39177;BME280;24904;52.208;21.192;2023-07-08T03:20:36;101137.02;;;11.94;71.88
39177;BME280;24904;52.208;21.192;2023-07-08T03:25:41;101139.02;;;12.00;71.96
39177;BME280;24904;52.208;21.192;2023-07-08T03:30:50;101137.58;;;12.08;72.18
39177;BME280;24904;52.208;21.192;2023-07-08T03:35:55;101142.89;;;12.20;72.03
39177;BME280;24904;52.208;21.192;2023-07-08T03:40:58;101140.36;;;12.29;72.30
39177;BME280;24904;52.208;21.192;2023-07-08T03:46:01;101135.55;;;12.33;72.34
39177;BME280;24904;52.208;21.192;2023-07-08T03:51:04;101138.69;;;12.41;72.44
39177;BME280;24904;52.208;21.192;2023-07-08T03:56:12;101141.05;;;12.52;72.59
39177;BME280;24904;52.208;21.192;2023-07-08T04:09:47;101135.46;;;12.84;73.00
39177;BME280;24904;52.208;21.192;2023-07-08T04:14:52;101132.81;;;12.98;73.20
39177;BME280;24904;52.208;21.192;2023-07-08T04:19:55;101132.02;;;13.14;73.26
39177;BME280;24904;52.208;21.192;2023-07-08T04:24:59;101124.96;;;13.29;73.16
39177;BME280;24904;52.208;21.192;2023-07-08T04:30:02;101129.11;;;13.46;73.26
39177;BME280;24904;52.208;21.192;2023-07-08T04:35:07;101131.02;;;13.60;73.67
39177;BME280;24904;52.208;21.192;2023-07-08T04:40:17;101136.10;;;13.79;74.08
39177;BME280;24904;52.208;21.192;2023-07-08T04:45:21;101133.39;;;14.01;73.85
39177;BME280;24904;52.208;21.192;2023-07-08T04:50:24;101126.58;;;14.27;73.60
39177;BME280;24904;52.208;21.192;2023-07-08T04:55:27;101125.05;;;14.50;73.67
39177;BME280;24904;52.208;21.192;2023-07-08T05:00:30;101129.08;;;14.72;73.48
39177;BME280;24904;52.208;21.192;2023-07-08T05:05:34;101133.39;;;14.94;73.34
39177;BME280;24904;52.208;21.192;2023-07-08T05:10:37;101129.70;;;15.14;72.82
39177;BME280;24904;52.208;21.192;2023-07-08T05:15:39;101129.94;;;15.33;72.45
39177;BME280;24904;52.208;21.192;2023-07-08T05:20:42;101131.27;;;15.53;72.02
39177;BME280;24904;52.208;21.192;2023-07-08T05:25:52;101128.59;;;15.76;71.14
39177;BME280;24904;52.208;21.192;2023-07-08T05:30:57;101124.83;;;16.05;70.11
39177;BME280;24904;52.208;21.192;2023-07-08T05:36:00;101117.85;;;16.36;69.79
39177;BME280;24904;52.208;21.192;2023-07-08T05:41:03;101121.64;;;16.63;69.28
39177;BME280;24904;52.208;21.192;2023-07-08T05:46:07;101122.71;;;16.90;68.35
39177;BME280;24904;52.208;21.192;2023-07-08T05:51:10;101121.09;;;17.21;67.37
39177;BME280;24904;52.208;21.192;2023-07-08T05:56:13;101117.70;;;17.52;66.13
39177;BME280;24904;52.208;21.192;2023-07-08T06:01:16;101112.92;;;17.85;65.77
39177;BME280;24904;52.208;21.192;2023-07-08T06:06:19;101109.45;;;18.13;65.33
39177;BME280;24904;52.208;21.192;2023-07-08T06:11:22;101111.76;;;18.41;64.79
39177;BME280;24904;52.208;21.192;2023-07-08T06:16:25;101108.33;;;18.69;64.51
39177;BME280;24904;52.208;21.192;2023-07-08T06:21:28;101104.07;;;18.96;62.78
39177;BME280;24904;52.208;21.192;2023-07-08T06:26:31;101102.09;;;19.21;61.36
39177;BME280;24904;52.208;21.192;2023-07-08T06:31:34;101102.29;;;19.49;60.48
39177;BME280;24904;52.208;21.192;2023-07-08T06:36:37;101103.29;;;19.75;60.19
39177;BME280;24904;52.208;21.192;2023-07-08T06:41:40;101103.21;;;20.01;59.45
39177;BME280;24904;52.208;21.192;2023-07-08T06:46:43;101101.14;;;20.25;59.30
39177;BME280;24904;52.208;21.192;2023-07-08T06:51:46;101096.89;;;20.46;59.01
39177;BME280;24904;52.208;21.192;2023-07-08T06:56:49;101090.38;;;20.67;58.54
39177;BME280;24904;52.208;21.192;2023-07-08T07:01:52;101089.21;;;20.89;57.43
39177;BME280;24904;52.208;21.192;2023-07-08T07:06:55;101083.48;;;21.12;55.59
39177;BME280;24904;52.208;21.192;2023-07-08T07:11:58;101077.47;;;21.33;55.49
39177;BME280;24904;52.208;21.192;2023-07-08T07:17:01;101072.71;;;21.56;54.58
39177;BME280;24904;52.208;21.192;2023-07-08T07:22:05;101066.04;;;21.82;54.23
39177;BME280;24904;52.208;21.192;2023-07-08T07:27:09;101073.23;;;22.05;53.02
39177;BME280;24904;52.208;21.192;2023-07-08T07:32:14;101069.94;;;22.29;52.08
39177;BME280;24904;52.208;21.192;2023-07-08T07:37:19;101064.34;;;22.50;51.51
39177;BME280;24904;52.208;21.192;2023-07-08T07:42:23;101061.73;;;22.75;51.17
39177;BME280;24904;52.208;21.192;2023-07-08T07:47:26;101060.39;;;23.00;50.09
39177;BME280;24904;52.208;21.192;2023-07-08T07:52:29;101060.27;;;23.23;49.53
39177;BME280;24904;52.208;21.192;2023-07-08T07:57:32;101056.73;;;23.45;47.28
39177;BME280;24904;52.208;21.192;2023-07-08T08:02:35;101053.48;;;23.65;45.52
39177;BME280;24904;52.208;21.192;2023-07-08T08:07:38;101051.73;;;23.87;45.67
39177;BME280;24904;52.208;21.192;2023-07-08T08:12:42;101049.49;;;24.06;44.89
39177;BME280;24904;52.208;21.192;2023-07-08T08:17:45;101048.61;;;24.17;44.24
39177;BME280;24904;52.208;21.192;2023-07-08T08:22:51;101049.65;;;24.34;44.12
39177;BME280;24904;52.208;21.192;2023-07-08T08:27:54;101056.02;;;24.47;43.21
39177;BME280;24904;52.208;21.192;2023-07-08T08:32:57;101054.34;;;24.65;42.65
39177;BME280;24904;52.208;21.192;2023-07-08T08:38:00;101054.44;;;24.84;42.39
39177;BME280;24904;52.208;21.192;2023-07-08T08:43:09;101053.93;;;25.02;41.89
39177;BME280;24904;52.208;21.192;2023-07-08T08:48:16;101053.06;;;25.14;41.09
39177;BME280;24904;52.208;21.192;2023-07-08T08:53:23;101047.17;;;25.22;40.98
39177;BME280;24904;52.208;21.192;2023-07-08T08:58:33;101052.48;;;25.30;40.25
39177;BME280;24904;52.208;21.192;2023-07-08T09:03:45;101051.09;;;25.35;40.18
39177;BME280;24904;52.208;21.192;2023-07-08T09:08:50;101052.97;;;25.36;39.46
39177;BME280;24904;52.208;21.192;2023-07-08T09:13:55;101046.51;;;25.45;39.10
39177;BME280;24904;52.208;21.192;2023-07-08T09:19:03;101048.60;;;25.55;39.05
39177;BME280;24904;52.208;21.192;2023-07-08T09:24:14;101046.11;;;25.69;38.32
39177;BME280;24904;52.208;21.192;2023-07-08T09:29:20;101051.45;;;25.77;37.73
39177;BME280;24904;52.208;21.192;2023-07-08T09:34:37;101051.05;;;25.90;36.90
39177;BME280;24904;52.208;21.192;2023-07-08T09:39:40;101045.91;;;25.99;36.06
39177;BME280;24904;52.208;21.192;2023-07-08T09:44:45;101047.09;;;26.00;36.71
39177;BME280;24904;52.208;21.192;2023-07-08T09:49:48;101046.55;;;25.88;37.02
39177;BME280;24904;52.208;21.192;2023-07-08T09:54:52;101038.72;;;25.80;36.62
39177;BME280;24904;52.208;21.192;2023-07-08T09:59:58;101037.85;;;25.67;37.40
39177;BME280;24904;52.208;21.192;2023-07-08T10:05:13;101039.73;;;25.50;38.01
39177;BME280;24904;52.208;21.192;2023-07-08T10:10:26;101032.66;;;25.45;38.01
39177;BME280;24904;52.208;21.192;2023-07-08T10:15:39;101033.70;;;25.38;36.96
39177;BME280;24904;52.208;21.192;2023-07-08T10:20:50;101033.20;;;25.24;37.53
39177;BME280;24904;52.208;21.192;2023-07-08T10:26:00;101023.52;;;25.37;38.09
39177;BME280;24904;52.208;21.192;2023-07-08T10:31:19;101019.10;;;25.55;37.28
39177;BME280;24904;52.208;21.192;2023-07-08T10:36:36;101015.41;;;25.75;36.94
39177;BME280;24904;52.208;21.192;2023-07-08T10:41:50;101014.23;;;25.97;36.44
39177;BME280;24904;52.208;21.192;2023-07-08T10:47:03;101003.99;;;26.19;36.57
39177;BME280;24904;52.208;21.192;2023-07-08T10:52:25;100999.39;;;26.28;35.74
39177;BME280;24904;52.208;21.192;2023-07-08T10:57:50;100999.17;;;26.47;35.68
39177;BME280;24904;52.208;21.192;2023-07-08T11:03:27;100992.95;;;26.63;35.49
39177;BME280;24904;52.208;21.192;2023-07-08T11:08:35;100995.75;;;26.71;34.73
39177;BME280;24904;52.208;21.192;2023-07-08T11:13:44;100987.58;;;26.73;34.50
39177;BME280;24904;52.208;21.192;2023-07-08T11:18:54;100982.39;;;26.76;33.59
39177;BME280;24904;52.208;21.192;2023-07-08T11:24:04;100985.16;;;26.75;33.54
39177;BME280;24904;52.208;21.192;2023-07-08T11:29:14;100974.34;;;26.72;33.46
39177;BME280;24904;52.208;21.192;2023-07-08T11:34:19;100971.72;;;26.75;33.05
39177;BME280;24904;52.208;21.192;2023-07-08T11:39:33;100968.34;;;26.75;33.26
39177;BME280;24904;52.208;21.192;2023-07-08T11:44:42;100973.82;;;26.80;33.34
39177;BME280;24904;52.208;21.192;2023-07-08T11:49:50;100967.46;;;26.82;33.27
39177;BME280;24904;52.208;21.192;2023-07-08T11:55:02;100963.80;;;26.69;33.35
39177;BME280;24904;52.208;21.192;2023-07-08T12:00:16;100964.67;;;26.71;33.32
39177;BME280;24904;52.208;21.192;2023-07-08T12:05:30;100961.94;;;26.78;33.71
39177;BME280;24904;52.208;21.192;2023-07-08T12:10:38;100964.89;;;26.71;33.03
39177;BME280;24904;52.208;21.192;2023-07-08T12:15:42;100959.73;;;26.56;33.08
39177;BME280;24904;52.208;21.192;2023-07-08T12:20:48;100959.02;;;26.43;33.58
39177;BME280;24904;52.208;21.192;2023-07-08T12:25:52;100957.88;;;26.26;33.56
39177;BME280;24904;52.208;21.192;2023-07-08T12:30:56;100949.27;;;26.18;33.78
39177;BME280;24904;52.208;21.192;2023-07-08T12:36:02;100941.20;;;26.20;34.04
39177;BME280;24904;52.208;21.192;2023-07-08T12:41:11;100942.16;;;26.11;33.93
39177;BME280;24904;52.208;21.192;2023-07-08T12:46:16;100941.23;;;25.99;34.49
39177;BME280;24904;52.208;21.192;2023-07-08T12:51:26;100939.02;;;25.91;34.77
39177;BME280;24904;52.208;21.192;2023-07-08T12:56:30;100936.81;;;25.86;35.15
39177;BME280;24904;52.208;21.192;2023-07-08T13:01:34;100938.75;;;25.83;35.42
39177;BME280;24904;52.208;21.192;2023-07-08T13:06:38;100933.39;;;25.76;35.35
39177;BME280;24904;52.208;21.192;2023-07-08T13:11:43;100923.22;;;25.78;35.63
39177;BME280;24904;52.208;21.192;2023-07-08T13:16:47;100913.36;;;25.84;35.42
39177;BME280;24904;52.208;21.192;2023-07-08T13:21:51;100917.16;;;25.91;35.02
39177;BME280;24904;52.208;21.192;2023-07-08T13:26:56;100918.97;;;25.94;35.17
39177;BME280;24904;52.208;21.192;2023-07-08T13:32:09;100911.23;;;25.91;35.44
39177;BME280;24904;52.208;21.192;2023-07-08T13:37:13;100905.42;;;25.87;35.35
39177;BME280;24904;52.208;21.192;2023-07-08T13:42:16;100905.77;;;25.85;35.64
39177;BME280;24904;52.208;21.192;2023-07-08T13:47:25;100892.64;;;25.89;34.96
39177;BME280;24904;52.208;21.192;2023-07-08T13:52:29;100896.48;;;25.98;34.92
39177;BME280;24904;52.208;21.192;2023-07-08T13:57:34;100897.51;;;26.12;34.70
39177;BME280;24904;52.208;21.192;2023-07-08T14:02:42;100892.56;;;26.20;33.86
39177;BME280;24904;52.208;21.192;2023-07-08T14:07:45;100893.21;;;26.25;34.27
39177;BME280;24904;52.208;21.192;2023-07-08T14:12:48;100884.28;;;26.26;34.57
39177;BME280;24904;52.208;21.192;2023-07-08T14:17:51;100878.23;;;26.24;35.39
39177;BME280;24904;52.208;21.192;2023-07-08T14:26:00;100877.10;;;26.24;34.26
39177;BME280;24904;52.208;21.192;2023-07-08T14:31:04;100871.54;;;26.19;34.05
39177;BME280;24904;52.208;21.192;2023-07-08T14:36:09;100869.52;;;26.14;34.01
39177;BME280;24904;52.208;21.192;2023-07-08T14:41:12;100864.70;;;26.10;33.78
39177;BME280;24904;52.208;21.192;2023-07-08T14:46:15;100857.55;;;26.08;33.95
39177;BME280;24904;52.208;21.192;2023-07-08T14:51:18;100857.59;;;26.08;34.14
39177;BME280;24904;52.208;21.192;2023-07-08T14:56:21;100851.22;;;26.06;34.76
39177;BME280;24904;52.208;21.192;2023-07-08T15:01:24;100840.00;;;26.10;33.15
39177;BME280;24904;52.208;21.192;2023-07-08T15:06:32;100841.55;;;26.15;33.35
39177;BME280;24904;52.208;21.192;2023-07-08T15:11:35;100835.66;;;26.17;33.51
39177;BME280;24904;52.208;21.192;2023-07-08T15:16:40;100835.80;;;26.18;33.89
39177;BME280;24904;52.208;21.192;2023-07-08T15:21:43;100833.16;;;26.15;34.32
39177;BME280;24904;52.208;21.192;2023-07-08T15:26:47;100828.30;;;26.11;34.50
39177;BME280;24904;52.208;21.192;2023-07-08T15:31:51;100830.44;;;26.07;34.42
39177;BME280;24904;52.208;21.192;2023-07-08T15:36:54;100829.80;;;25.99;34.74
39177;BME280;24904;52.208;21.192;2023-07-08T15:41:57;100831.28;;;25.94;35.42
39177;BME280;24904;52.208;21.192;2023-07-08T15:47:01;100823.93;;;25.87;34.81
39177;BME280;24904;52.208;21.192;2023-07-08T15:52:06;100816.25;;;25.83;34.07
39177;BME280;24904;52.208;21.192;2023-07-08T15:57:12;100818.39;;;25.78;33.42
39177;BME280;24904;52.208;21.192;2023-07-08T16:02:24;100818.38;;;25.73;33.82
39177;BME280;24904;52.208;21.192;2023-07-08T16:07:28;100815.15;;;25.67;34.24
39177;BME280;24904;52.208;21.192;2023-07-08T16:12:31;100813.61;;;25.62;35.35
39177;BME280;24904;52.208;21.192;2023-07-08T16:17:37;100814.58;;;25.55;36.07
39177;BME280;24904;52.208;21.192;2023-07-08T16:22:40;100809.23;;;25.44;36.75
39177;BME280;24904;52.208;21.192;2023-07-08T16:27:44;100805.33;;;25.35;36.08
39177;BME280;24904;52.208;21.192;2023-07-08T16:32:48;100805.16;;;25.29;35.70
39177;BME280;24904;52.208;21.192;2023-07-08T16:37:53;100803.39;;;25.24;35.38
39177;BME280;24904;52.208;21.192;2023-07-08T16:42:57;100803.80;;;25.17;35.82
39177;BME280;24904;52.208;21.192;2023-07-08T16:48:00;100797.05;;;25.10;35.89
39177;BME280;24904;52.208;21.192;2023-07-08T16:53:04;100793.01;;;25.05;35.70
39177;BME280;24904;52.208;21.192;2023-07-08T16:58:12;100794.06;;;25.01;35.02
39177;BME280;24904;52.208;21.192;2023-07-08T17:03:16;100791.64;;;24.99;35.17
39177;BME280;24904;52.208;21.192;2023-07-08T17:08:20;100792.94;;;24.95;35.57
39177;BME280;24904;52.208;21.192;2023-07-08T17:13:23;100794.22;;;24.88;35.61
39177;BME280;24904;52.208;21.192;2023-07-08T17:18:26;100789.26;;;24.83;35.63
39177;BME280;24904;52.208;21.192;2023-07-08T17:23:30;100789.52;;;24.78;35.64
39177;BME280;24904;52.208;21.192;2023-07-08T17:28:33;100792.53;;;24.73;35.86
39177;BME280;24904;52.208;21.192;2023-07-08T17:33:36;100792.73;;;24.67;36.08
39177;BME280;24904;52.208;21.192;2023-07-08T17:38:44;100792.16;;;24.56;36.28
39177;BME280;24904;52.208;21.192;2023-07-08T17:43:46;100790.88;;;24.46;36.48
39177;BME280;24904;52.208;21.192;2023-07-08T17:48:49;100790.41;;;24.38;36.58
39177;BME280;24904;52.208;21.192;2023-07-08T17:53:53;100790.01;;;24.29;36.94
39177;BME280;24904;52.208;21.192;2023-07-08T17:58:56;100794.98;;;24.18;37.66
39177;BME280;24904;52.208;21.192;2023-07-08T18:03:59;100792.16;;;24.09;38.01
39177;BME280;24904;52.208;21.192;2023-07-08T18:09:02;100794.57;;;23.95;38.74
39177;BME280;24904;52.208;21.192;2023-07-08T18:14:05;100793.41;;;23.86;40.07
39177;BME280;24904;52.208;21.192;2023-07-08T18:19:09;100798.46;;;23.73;41.35
39177;BME280;24904;52.208;21.192;2023-07-08T18:24:12;100801.44;;;23.56;41.21
39177;BME280;24904;52.208;21.192;2023-07-08T18:29:15;100804.17;;;23.40;41.38
39177;BME280;24904;52.208;21.192;2023-07-08T18:34:18;100804.92;;;23.25;41.77
39177;BME280;24904;52.208;21.192;2023-07-08T18:39:22;100810.30;;;23.10;42.02
39177;BME280;24904;52.208;21.192;2023-07-08T18:44:28;100811.35;;;22.93;42.73
39177;BME280;24904;52.208;21.192;2023-07-08T18:49:32;100813.72;;;22.74;43.43
39177;BME280;24904;52.208;21.192;2023-07-08T18:54:35;100815.28;;;22.54;43.86
39177;BME280;24904;52.208;21.192;2023-07-08T18:59:38;100816.48;;;22.39;44.50
39177;BME280;24904;52.208;21.192;2023-07-08T19:04:41;100814.48;;;22.20;44.89
39177;BME280;24904;52.208;21.192;2023-07-08T19:09:44;100821.79;;;22.02;45.56
39177;BME280;24904;52.208;21.192;2023-07-08T19:14:47;100825.72;;;21.85;45.98
39177;BME280;24904;52.208;21.192;2023-07-08T19:19:51;100828.08;;;21.68;46.52
39177;BME280;24904;52.208;21.192;2023-07-08T19:24:54;100831.02;;;21.52;47.02
39177;BME280;24904;52.208;21.192;2023-07-08T19:29:57;100832.83;;;21.34;47.61
39177;BME280;24904;52.208;21.192;2023-07-08T19:35:00;100832.13;;;21.16;48.00
39177;BME280;24904;52.208;21.192;2023-07-08T19:40:07;100832.90;;;21.01;48.73
39177;BME280;24904;52.208;21.192;2023-07-08T19:45:23;100836.11;;;20.84;49.00
39177;BME280;24904;52.208;21.192;2023-07-08T19:56:32;100836.05;;;20.59;49.93
39177;BME280;24904;52.208;21.192;2023-07-08T20:01:35;100838.81;;;20.42;50.60
39177;BME280;24904;52.208;21.192;2023-07-08T20:06:38;100842.63;;;20.26;50.96
39177;BME280;24904;52.208;21.192;2023-07-08T20:11:41;100843.73;;;20.13;51.33
39177;BME280;24904;52.208;21.192;2023-07-08T20:16:44;100844.77;;;19.96;51.65
39177;BME280;24904;52.208;21.192;2023-07-08T20:21:47;100848.15;;;19.86;52.02
39177;BME280;24904;52.208;21.192;2023-07-08T20:26:50;100850.75;;;19.76;52.66
39177;BME280;24904;52.208;21.192;2023-07-08T20:31:53;100850.88;;;19.64;53.30
39177;BME280;24904;52.208;21.192;2023-07-08T20:36:56;100856.18;;;19.52;53.58
39177;BME280;24904;52.208;21.192;2023-07-08T20:41:59;100860.25;;;19.37;53.90
39177;BME280;24904;52.208;21.192;2023-07-08T20:47:13;100861.14;;;19.26;54.48
39177;BME280;24904;52.208;21.192;2023-07-08T20:52:17;100863.34;;;19.14;54.66
39177;BME280;24904;52.208;21.192;2023-07-08T20:57:21;100864.89;;;18.95;55.04
39177;BME280;24904;52.208;21.192;2023-07-08T21:02:25;100870.73;;;18.93;55.52
39177;BME280;24904;52.208;21.192;2023-07-08T21:07:28;100871.69;;;18.89;55.67
39177;BME280;24904;52.208;21.192;2023-07-08T21:12:31;100876.08;;;18.81;55.70
39177;BME280;24904;52.208;21.192;2023-07-08T21:17:34;100875.70;;;18.68;55.97
39177;BME280;24904;52.208;21.192;2023-07-08T21:22:39;100880.84;;;18.57;55.99
39177;BME280;24904;52.208;21.192;2023-07-08T21:27:43;100887.86;;;18.49;56.02
39177;BME280;24904;52.208;21.192;2023-07-08T21:32:47;100890.32;;;18.43;55.95
39177;BME280;24904;52.208;21.192;2023-07-08T21:37:51;100894.15;;;18.36;55.86
39177;BME280;24904;52.208;21.192;2023-07-08T21:42:56;100894.05;;;18.31;55.96
39177;BME280;24904;52.208;21.192;2023-07-08T21:47:59;100892.77;;;18.25;55.84
39177;BME280;24904;52.208;21.192;2023-07-08T21:53:02;100893.45;;;18.22;56.03
39177;BME280;24904;52.208;21.192;2023-07-08T22:04:11;100893.92;;;18.14;56.05
39177;BME280;24904;52.208;21.192;2023-07-08T22:09:14;100899.48;;;18.14;56.26
39177;BME280;24904;52.208;21.192;2023-07-08T22:14:17;100901.34;;;18.12;56.70
39177;BME280;24904;52.208;21.192;2023-07-08T22:19:20;100899.27;;;18.05;56.90
39177;BME280;24904;52.208;21.192;2023-07-08T22:24:23;100898.45;;;18.00;56.81
39177;BME280;24904;52.208;21.192;2023-07-08T22:29:26;100900.16;;;17.96;56.76
39177;BME280;24904;52.208;21.192;2023-07-08T22:34:29;100900.04;;;17.94;56.90
39177;BME280;24904;52.208;21.192;2023-07-08T22:39:32;100903.90;;;17.88;56.96
39177;BME280;24904;52.208;21.192;2023-07-08T22:44:35;100907.66;;;17.85;57.21
39177;BME280;24904;52.208;21.192;2023-07-08T22:49:38;100901.62;;;17.79;57.15
39177;BME280;24904;52.208;21.192;2023-07-08T22:54:42;100895.15;;;17.75;57.41
39177;BME280;24904;52.208;21.192;2023-07-08T22:59:45;100898.44;;;17.71;57.79
39177;BME280;24904;52.208;21.192;2023-07-08T23:04:48;100901.70;;;17.70;57.95
39177;BME280;24904;52.208;21.192;2023-07-08T23:09:51;100900.28;;;17.66;57.98
39177;BME280;24904;52.208;21.192;2023-07-08T23:14:54;100897.08;;;17.61;58.17
39177;BME280;24904;52.208;21.192;2023-07-08T23:19:57;100898.43;;;17.52;58.46
39177;BME280;24904;52.208;21.192;2023-07-08T23:25:00;100898.14;;;17.49;58.66
39177;BME280;24904;52.208;21.192;2023-07-08T23:30:04;100895.56;;;17.45;58.94
39177;BME280;24904;52.208;21.192;2023-07-08T23:35:08;100898.52;;;17.41;58.75
39177;BME280;24904;52.208;21.192;2023-07-08T23:40:15;100895.14;;;17.38;58.79
39177;BME280;24904;52.208;21.192;2023-07-08T23:45:18;100894.38;;;17.35;58.65
39177;BME280;24904;52.208;21.192;2023-07-08T23:50:22;100896.42;;;17.36;58.79
39177;BME280;24904;52.208;21.192;2023-07-08T23:55:24;100898.91;;;17.32;58.81
